sensor_id;sensor_type;location;lat;lon;timestamp;P1;durP1;ratioP1;P2;durP2;ratioP2
26822;SDS011;14852;51.910;8.878;2023-04-25T00:01:31;7.82;;;3.92;;
26822;SDS011;14852;51.910;8.878;2023-04-25T00:04:00;12.77;;;5.47;;
26822;SDS011;14852;51.910;8.878;2023-04-25T00:06:27;8.65;;;5.00;;
26822;SDS011;14852;51.910;8.878;2023-04-25T00:08:57;12.57;;;5.00;;
26822;SDS011;14852;51.910;8.878;2023-04-25T00:11:23;11.05;;;5.60;;
26822;SDS011;14852;51.910;8.878;2023-04-25T00:13:49;12.90;;;5.55;;
26822;SDS011;14852;51.910;8.878;2023-04-25T00:16:19;8.25;;;4.85;;
26822;SDS011;14852;51.910;8.878;2023-04-25T00:18:45;9.85;;;4.65;;
26822;SDS011;14852;51.910;8.878;2023-04-25T00:21:16;12.13;;;6.05;;
26822;SDS011;14852;51.910;8.878;2023-04-25T00:23:43;8.77;;;5.20;;
26822;SDS011;14852;51.910;8.878;2023-04-25T00:26:11;8.65;;;4.95;;
26822;SDS011;14852;51.910;8.878;2023-04-25T00:28:37;7.32;;;5.63;;
26822;SDS011;14852;51.910;8.878;2023-04-25T00:31:03;10.32;;;5.40;;
26822;SDS011;14852;51.910;8.878;2023-04-25T00:33:29;9.15;;;4.97;;
26822;SDS011;14852;51.910;8.878;2023-04-25T00:35:55;9.43;;;5.38;;
26822;SDS011;14852;51.910;8.878;2023-04-25T00:38:21;10.82;;;5.05;;
26822;SDS011;14852;51.910;8.878;2023-04-25T00:40:47;9.80;;;5.57;;
26822;SDS011;14852;51.910;8.878;2023-04-25T00:43:13;8.55;;;5.55;;
26822;SDS011;14852;51.910;8.878;2023-04-25T00:45:39;8.80;;;5.13;;
26822;SDS011;14852;51.910;8.878;2023-04-25T00:48:05;10.68;;;5.18;;
26822;SDS011;14852;51.910;8.878;2023-04-25T00:50:34;9.50;;;4.80;;
26822;SDS011;14852;51.910;8.878;2023-04-25T00:53:01;11.65;;;5.50;;
26822;SDS011;14852;51.910;8.878;2023-04-25T00:55:28;7.18;;;4.20;;
26822;SDS011;14852;51.910;8.878;2023-04-25T00:57:54;11.30;;;5.43;;
26822;SDS011;14852;51.910;8.878;2023-04-25T01:00:20;20.20;;;5.22;;
26822;SDS011;14852;51.910;8.878;2023-04-25T01:02:46;11.05;;;4.88;;
26822;SDS011;14852;51.910;8.878;2023-04-25T01:05:13;11.45;;;5.03;;
26822;SDS011;14852;51.910;8.878;2023-04-25T01:07:39;12.18;;;4.95;;
26822;SDS011;14852;51.910;8.878;2023-04-25T01:10:05;7.65;;;4.80;;
26822;SDS011;14852;51.910;8.878;2023-04-25T01:12:32;12.63;;;5.72;;
26822;SDS011;14852;51.910;8.878;2023-04-25T01:14:58;9.75;;;5.32;;
26822;SDS011;14852;51.910;8.878;2023-04-25T01:17:24;8.07;;;5.28;;
26822;SDS011;14852;51.910;8.878;2023-04-25T01:19:50;7.43;;;3.95;;
26822;SDS011;14852;51.910;8.878;2023-04-25T01:22:16;8.52;;;5.80;;
26822;SDS011;14852;51.910;8.878;2023-04-25T01:24:42;10.43;;;5.88;;
26822;SDS011;14852;51.910;8.878;2023-04-25T01:27:12;8.77;;;5.55;;
26822;SDS011;14852;51.910;8.878;2023-04-25T01:29:39;9.10;;;5.97;;
26822;SDS011;14852;51.910;8.878;2023-04-25T01:32:05;10.07;;;5.28;;
26822;SDS011;14852;51.910;8.878;2023-04-25T01:34:32;14.75;;;6.75;;
26822;SDS011;14852;51.910;8.878;2023-04-25T01:36:59;10.00;;;5.45;;
26822;SDS011;14852;51.910;8.878;2023-04-25T01:39:27;13.32;;;7.63;;
26822;SDS011;14852;51.910;8.878;2023-04-25T01:41:53;9.23;;;6.45;;
26822;SDS011;14852;51.910;8.878;2023-04-25T01:44:20;9.20;;;6.05;;
26822;SDS011;14852;51.910;8.878;2023-04-25T01:46:47;9.05;;;6.68;;
26822;SDS011;14852;51.910;8.878;2023-04-25T01:49:12;7.93;;;5.50;;
26822;SDS011;14852;51.910;8.878;2023-04-25T01:51:40;9.35;;;6.05;;
26822;SDS011;14852;51.910;8.878;2023-04-25T01:54:06;9.93;;;5.72;;
26822;SDS011;14852;51.910;8.878;2023-04-25T01:56:36;9.07;;;5.40;;
26822;SDS011;14852;51.910;8.878;2023-04-25T01:59:04;10.18;;;6.07;;
26822;SDS011;14852;51.910;8.878;2023-04-25T02:02:09;8.32;;;6.55;;
26822;SDS011;14852;51.910;8.878;2023-04-25T02:04:35;10.80;;;6.72;;
26822;SDS011;14852;51.910;8.878;2023-04-25T02:07:01;12.13;;;6.68;;
26822;SDS011;14852;51.910;8.878;2023-04-25T02:09:38;13.25;;;6.93;;
26822;SDS011;14852;51.910;8.878;2023-04-25T02:12:05;8.68;;;6.65;;
26822;SDS011;14852;51.910;8.878;2023-04-25T02:14:48;12.10;;;6.93;;
26822;SDS011;14852;51.910;8.878;2023-04-25T02:17:19;12.18;;;6.95;;
26822;SDS011;14852;51.910;8.878;2023-04-25T02:19:46;8.38;;;5.88;;
26822;SDS011;14852;51.910;8.878;2023-04-25T02:22:12;7.97;;;5.55;;
26822;SDS011;14852;51.910;8.878;2023-04-25T02:24:38;7.57;;;4.75;;
26822;SDS011;14852;51.910;8.878;2023-04-25T02:27:04;7.20;;;5.03;;
26822;SDS011;14852;51.910;8.878;2023-04-25T02:29:31;6.30;;;4.43;;
26822;SDS011;14852;51.910;8.878;2023-04-25T02:31:56;7.50;;;4.78;;
26822;SDS011;14852;51.910;8.878;2023-04-25T02:34:22;6.35;;;4.22;;
26822;SDS011;14852;51.910;8.878;2023-04-25T02:36:48;6.13;;;4.13;;
26822;SDS011;14852;51.910;8.878;2023-04-25T02:39:16;6.47;;;4.03;;
26822;SDS011;14852;51.910;8.878;2023-04-25T02:41:42;5.95;;;3.85;;
26822;SDS011;14852;51.910;8.878;2023-04-25T02:44:08;7.15;;;3.63;;
26822;SDS011;14852;51.910;8.878;2023-04-25T02:46:34;6.15;;;4.15;;
26822;SDS011;14852;51.910;8.878;2023-04-25T02:48:59;4.95;;;3.45;;
26822;SDS011;14852;51.910;8.878;2023-04-25T02:51:25;3.67;;;3.10;;
26822;SDS011;14852;51.910;8.878;2023-04-25T02:53:51;5.03;;;3.05;;
26822;SDS011;14852;51.910;8.878;2023-04-25T02:56:17;5.38;;;3.13;;
26822;SDS011;14852;51.910;8.878;2023-04-25T02:58:43;4.35;;;3.38;;
26822;SDS011;14852;51.910;8.878;2023-04-25T03:01:10;3.55;;;2.97;;
26822;SDS011;14852;51.910;8.878;2023-04-25T03:03:36;3.88;;;3.20;;
26822;SDS011;14852;51.910;8.878;2023-04-25T03:06:02;3.83;;;2.70;;
26822;SDS011;14852;51.910;8.878;2023-04-25T03:08:32;3.50;;;2.83;;
26822;SDS011;14852;51.910;8.878;2023-04-25T03:11:00;8.07;;;2.95;;
26822;SDS011;14852;51.910;8.878;2023-04-25T03:13:26;7.78;;;3.58;;
26822;SDS011;14852;51.910;8.878;2023-04-25T03:15:53;5.57;;;3.20;;
26822;SDS011;14852;51.910;8.878;2023-04-25T03:18:18;4.95;;;3.05;;
26822;SDS011;14852;51.910;8.878;2023-04-25T03:20:44;13.60;;;4.05;;
26822;SDS011;14852;51.910;8.878;2023-04-25T03:23:11;9.38;;;3.88;;
26822;SDS011;14852;51.910;8.878;2023-04-25T03:25:40;8.60;;;3.65;;
26822;SDS011;14852;51.910;8.878;2023-04-25T03:28:06;5.65;;;3.28;;
26822;SDS011;14852;51.910;8.878;2023-04-25T03:30:32;5.28;;;3.90;;
26822;SDS011;14852;51.910;8.878;2023-04-25T03:32:58;9.57;;;3.47;;
26822;SDS011;14852;51.910;8.878;2023-04-25T03:35:24;6.97;;;3.42;;
26822;SDS011;14852;51.910;8.878;2023-04-25T03:37:50;9.50;;;3.33;;
26822;SDS011;14852;51.910;8.878;2023-04-25T03:40:21;10.90;;;4.32;;
26822;SDS011;14852;51.910;8.878;2023-04-25T03:43:11;10.40;;;3.53;;
26822;SDS011;14852;51.910;8.878;2023-04-25T03:45:41;8.68;;;4.03;;
26822;SDS011;14852;51.910;8.878;2023-04-25T03:48:06;6.55;;;2.83;;
26822;SDS011;14852;51.910;8.878;2023-04-25T03:50:32;8.93;;;3.30;;
26822;SDS011;14852;51.910;8.878;2023-04-25T03:52:58;11.23;;;3.80;;
26822;SDS011;14852;51.910;8.878;2023-04-25T03:55:27;7.15;;;3.13;;
26822;SDS011;14852;51.910;8.878;2023-04-25T03:57:53;11.80;;;3.45;;
26822;SDS011;14852;51.910;8.878;2023-04-25T04:00:19;8.50;;;3.53;;
26822;SDS011;14852;51.910;8.878;2023-04-25T04:02:49;7.88;;;3.85;;
26822;SDS011;14852;51.910;8.878;2023-04-25T04:05:15;9.98;;;4.47;;
26822;SDS011;14852;51.910;8.878;2023-04-25T04:07:48;8.60;;;3.65;;
26822;SDS011;14852;51.910;8.878;2023-04-25T04:10:16;15.68;;;4.63;;
26822;SDS011;14852;51.910;8.878;2023-04-25T04:12:42;8.45;;;3.63;;
26822;SDS011;14852;51.910;8.878;2023-04-25T04:15:10;14.60;;;4.00;;
26822;SDS011;14852;51.910;8.878;2023-04-25T04:17:37;7.82;;;3.45;;
26822;SDS011;14852;51.910;8.878;2023-04-25T04:20:03;8.43;;;3.38;;
26822;SDS011;14852;51.910;8.878;2023-04-25T04:22:31;11.23;;;4.28;;
26822;SDS011;14852;51.910;8.878;2023-04-25T04:25:01;11.57;;;4.28;;
26822;SDS011;14852;51.910;8.878;2023-04-25T04:27:57;11.00;;;3.75;;
26822;SDS011;14852;51.910;8.878;2023-04-25T04:30:33;13.98;;;4.80;;
26822;SDS011;14852;51.910;8.878;2023-04-25T04:33:03;11.30;;;3.78;;
26822;SDS011;14852;51.910;8.878;2023-04-25T04:35:29;13.27;;;4.20;;
26822;SDS011;14852;51.910;8.878;2023-04-25T04:37:55;8.45;;;3.60;;
26822;SDS011;14852;51.910;8.878;2023-04-25T04:40:24;13.90;;;4.07;;
26822;SDS011;14852;51.910;8.878;2023-04-25T04:43:03;14.30;;;4.82;;
26822;SDS011;14852;51.910;8.878;2023-04-25T04:45:35;6.40;;;3.28;;
26822;SDS011;14852;51.910;8.878;2023-04-25T04:48:08;7.80;;;3.38;;
26822;SDS011;14852;51.910;8.878;2023-04-25T04:51:11;16.10;;;4.30;;
26822;SDS011;14852;51.910;8.878;2023-04-25T04:54:01;8.82;;;3.45;;
26822;SDS011;14852;51.910;8.878;2023-04-25T04:56:39;9.18;;;4.63;;
26822;SDS011;14852;51.910;8.878;2023-04-25T04:59:26;14.05;;;4.25;;
26822;SDS011;14852;51.910;8.878;2023-04-25T05:02:08;5.05;;;3.25;;
26822;SDS011;14852;51.910;8.878;2023-04-25T05:04:59;11.13;;;5.32;;
26822;SDS011;14852;51.910;8.878;2023-04-25T05:07:44;9.40;;;3.70;;
26822;SDS011;14852;51.910;8.878;2023-04-25T05:10:34;8.07;;;2.90;;
26822;SDS011;14852;51.910;8.878;2023-04-25T05:13:11;14.73;;;4.78;;
26822;SDS011;14852;51.910;8.878;2023-04-25T05:15:59;10.38;;;3.88;;
26822;SDS011;14852;51.910;8.878;2023-04-25T05:18:47;13.40;;;5.60;;
26822;SDS011;14852;51.910;8.878;2023-04-25T05:21:25;10.35;;;3.78;;
26822;SDS011;14852;51.910;8.878;2023-04-25T05:24:08;9.98;;;3.92;;
26822;SDS011;14852;51.910;8.878;2023-04-25T05:27:05;11.00;;;4.53;;
26822;SDS011;14852;51.910;8.878;2023-04-25T05:29:42;12.52;;;3.70;;
26822;SDS011;14852;51.910;8.878;2023-04-25T05:32:22;9.52;;;3.35;;
26822;SDS011;14852;51.910;8.878;2023-04-25T05:34:49;10.07;;;4.45;;
26822;SDS011;14852;51.910;8.878;2023-04-25T05:37:22;8.05;;;3.65;;
26822;SDS011;14852;51.910;8.878;2023-04-25T05:39:54;8.88;;;3.45;;
26822;SDS011;14852;51.910;8.878;2023-04-25T05:42:36;7.32;;;2.95;;
26822;SDS011;14852;51.910;8.878;2023-04-25T05:45:28;13.63;;;3.75;;
26822;SDS011;14852;51.910;8.878;2023-04-25T05:48:17;11.82;;;4.57;;
26822;SDS011;14852;51.910;8.878;2023-04-25T05:50:56;11.32;;;3.38;;
26822;SDS011;14852;51.910;8.878;2023-04-25T05:53:40;11.30;;;4.10;;
26822;SDS011;14852;51.910;8.878;2023-04-25T05:56:08;14.38;;;4.45;;
26822;SDS011;14852;51.910;8.878;2023-04-25T05:58:33;9.93;;;4.50;;
26822;SDS011;14852;51.910;8.878;2023-04-25T06:00:59;15.00;;;4.53;;
26822;SDS011;14852;51.910;8.878;2023-04-25T06:03:27;15.50;;;4.50;;
26822;SDS011;14852;51.910;8.878;2023-04-25T06:05:56;12.30;;;5.07;;
26822;SDS011;14852;51.910;8.878;2023-04-25T06:08:21;9.32;;;4.28;;
26822;SDS011;14852;51.910;8.878;2023-04-25T06:10:47;11.80;;;4.28;;
26822;SDS011;14852;51.910;8.878;2023-04-25T06:13:13;16.70;;;5.65;;
26822;SDS011;14852;51.910;8.878;2023-04-25T06:15:40;11.93;;;5.38;;
26822;SDS011;14852;51.910;8.878;2023-04-25T06:18:06;14.45;;;5.00;;
26822;SDS011;14852;51.910;8.878;2023-04-25T06:20:33;5.80;;;3.42;;
26822;SDS011;14852;51.910;8.878;2023-04-25T06:22:59;9.35;;;4.10;;
26822;SDS011;14852;51.910;8.878;2023-04-25T06:25:35;11.30;;;3.97;;
26822;SDS011;14852;51.910;8.878;2023-04-25T06:28:01;9.32;;;4.78;;
26822;SDS011;14852;51.910;8.878;2023-04-25T06:30:27;14.27;;;5.45;;
26822;SDS011;14852;51.910;8.878;2023-04-25T06:32:58;11.13;;;4.10;;
26822;SDS011;14852;51.910;8.878;2023-04-25T06:35:24;11.20;;;3.88;;
26822;SDS011;14852;51.910;8.878;2023-04-25T06:37:50;11.63;;;4.30;;
26822;SDS011;14852;51.910;8.878;2023-04-25T06:40:20;10.10;;;4.45;;
26822;SDS011;14852;51.910;8.878;2023-04-25T06:42:46;10.15;;;4.97;;
26822;SDS011;14852;51.910;8.878;2023-04-25T06:45:38;11.77;;;4.75;;
26822;SDS011;14852;51.910;8.878;2023-04-25T06:48:06;11.23;;;4.65;;
26822;SDS011;14852;51.910;8.878;2023-04-25T06:50:33;10.30;;;3.85;;
26822;SDS011;14852;51.910;8.878;2023-04-25T06:52:59;11.27;;;4.70;;
26822;SDS011;14852;51.910;8.878;2023-04-25T06:55:27;11.23;;;4.22;;
26822;SDS011;14852;51.910;8.878;2023-04-25T06:58:05;9.50;;;3.97;;
26822;SDS011;14852;51.910;8.878;2023-04-25T07:00:50;11.77;;;3.90;;
26822;SDS011;14852;51.910;8.878;2023-04-25T07:03:18;9.82;;;3.72;;
26822;SDS011;14852;51.910;8.878;2023-04-25T07:05:44;15.25;;;4.50;;
26822;SDS011;14852;51.910;8.878;2023-04-25T07:08:11;5.47;;;2.97;;
26822;SDS011;14852;51.910;8.878;2023-04-25T07:10:37;10.48;;;3.42;;
26822;SDS011;14852;51.910;8.878;2023-04-25T07:13:03;6.80;;;3.20;;
26822;SDS011;14852;51.910;8.878;2023-04-25T07:15:29;11.80;;;4.30;;
26822;SDS011;14852;51.910;8.878;2023-04-25T07:17:56;7.65;;;3.47;;
26822;SDS011;14852;51.910;8.878;2023-04-25T07:20:22;9.15;;;3.60;;
26822;SDS011;14852;51.910;8.878;2023-04-25T07:22:48;9.95;;;3.40;;
26822;SDS011;14852;51.910;8.878;2023-04-25T07:25:15;11.05;;;4.28;;
26822;SDS011;14852;51.910;8.878;2023-04-25T07:27:41;8.38;;;3.38;;
26822;SDS011;14852;51.910;8.878;2023-04-25T07:30:16;9.18;;;3.97;;
26822;SDS011;14852;51.910;8.878;2023-04-25T07:32:42;7.32;;;2.97;;
26822;SDS011;14852;51.910;8.878;2023-04-25T07:35:08;13.85;;;4.22;;
26822;SDS011;14852;51.910;8.878;2023-04-25T07:37:34;12.48;;;4.68;;
26822;SDS011;14852;51.910;8.878;2023-04-25T07:40:10;8.60;;;3.03;;
26822;SDS011;14852;51.910;8.878;2023-04-25T07:42:41;10.05;;;3.88;;
26822;SDS011;14852;51.910;8.878;2023-04-25T07:45:08;11.55;;;3.70;;
26822;SDS011;14852;51.910;8.878;2023-04-25T07:47:35;13.40;;;3.88;;
26822;SDS011;14852;51.910;8.878;2023-04-25T07:50:01;8.60;;;3.42;;
26822;SDS011;14852;51.910;8.878;2023-04-25T07:52:30;18.20;;;4.63;;
26822;SDS011;14852;51.910;8.878;2023-04-25T07:55:04;13.07;;;4.50;;
26822;SDS011;14852;51.910;8.878;2023-04-25T07:57:40;8.70;;;3.00;;
26822;SDS011;14852;51.910;8.878;2023-04-25T08:00:07;9.23;;;3.33;;
26822;SDS011;14852;51.910;8.878;2023-04-25T08:02:38;8.32;;;3.17;;
26822;SDS011;14852;51.910;8.878;2023-04-25T08:05:07;11.32;;;3.65;;
26822;SDS011;14852;51.910;8.878;2023-04-25T08:07:38;8.98;;;4.30;;
26822;SDS011;14852;51.910;8.878;2023-04-25T08:10:05;10.10;;;3.20;;
26822;SDS011;14852;51.910;8.878;2023-04-25T08:12:32;10.90;;;3.30;;
26822;SDS011;14852;51.910;8.878;2023-04-25T08:14:59;13.13;;;3.20;;
26822;SDS011;14852;51.910;8.878;2023-04-25T08:17:30;11.38;;;3.72;;
26822;SDS011;14852;51.910;8.878;2023-04-25T08:19:56;9.70;;;3.13;;
26822;SDS011;14852;51.910;8.878;2023-04-25T08:22:26;8.80;;;3.40;;
26822;SDS011;14852;51.910;8.878;2023-04-25T08:25:11;7.03;;;2.92;;
26822;SDS011;14852;51.910;8.878;2023-04-25T08:27:38;9.30;;;2.97;;
26822;SDS011;14852;51.910;8.878;2023-04-25T08:30:04;8.95;;;3.17;;
26822;SDS011;14852;51.910;8.878;2023-04-25T08:32:33;7.70;;;3.15;;
26822;SDS011;14852;51.910;8.878;2023-04-25T08:35:20;8.00;;;3.50;;
26822;SDS011;14852;51.910;8.878;2023-04-25T08:37:46;8.15;;;3.53;;
26822;SDS011;14852;51.910;8.878;2023-04-25T08:40:14;7.53;;;3.00;;
26822;SDS011;14852;51.910;8.878;2023-04-25T08:42:49;7.57;;;2.97;;
26822;SDS011;14852;51.910;8.878;2023-04-25T08:45:17;7.95;;;3.17;;
26822;SDS011;14852;51.910;8.878;2023-04-25T08:47:44;7.75;;;3.50;;
26822;SDS011;14852;51.910;8.878;2023-04-25T08:50:11;7.20;;;2.70;;
26822;SDS011;14852;51.910;8.878;2023-04-25T08:52:41;10.13;;;2.63;;
26822;SDS011;14852;51.910;8.878;2023-04-25T08:55:12;7.50;;;2.60;;
26822;SDS011;14852;51.910;8.878;2023-04-25T08:57:40;6.68;;;2.75;;
26822;SDS011;14852;51.910;8.878;2023-04-25T09:00:08;6.65;;;2.50;;
26822;SDS011;14852;51.910;8.878;2023-04-25T09:02:39;6.80;;;2.60;;
26822;SDS011;14852;51.910;8.878;2023-04-25T09:05:07;7.18;;;2.35;;
26822;SDS011;14852;51.910;8.878;2023-04-25T09:07:34;5.93;;;2.53;;
26822;SDS011;14852;51.910;8.878;2023-04-25T09:10:00;9.45;;;2.38;;
26822;SDS011;14852;51.910;8.878;2023-04-25T09:12:29;6.93;;;2.65;;
26822;SDS011;14852;51.910;8.878;2023-04-25T09:15:06;7.40;;;2.72;;
26822;SDS011;14852;51.910;8.878;2023-04-25T09:18:02;10.90;;;2.72;;
26822;SDS011;14852;51.910;8.878;2023-04-25T09:20:32;9.02;;;2.40;;
26822;SDS011;14852;51.910;8.878;2023-04-25T09:23:08;10.10;;;3.72;;
26822;SDS011;14852;51.910;8.878;2023-04-25T09:25:36;8.23;;;2.90;;
26822;SDS011;14852;51.910;8.878;2023-04-25T09:28:05;5.45;;;2.25;;
26822;SDS011;14852;51.910;8.878;2023-04-25T09:30:35;13.00;;;2.78;;
26822;SDS011;14852;51.910;8.878;2023-04-25T09:33:07;10.13;;;1.92;;
26822;SDS011;14852;51.910;8.878;2023-04-25T09:35:42;4.60;;;2.80;;
26822;SDS011;14852;51.910;8.878;2023-04-25T09:38:18;4.95;;;3.10;;
26822;SDS011;14852;51.910;8.878;2023-04-25T09:41:07;5.60;;;2.55;;
26822;SDS011;14852;51.910;8.878;2023-04-25T09:43:39;4.75;;;1.88;;
26822;SDS011;14852;51.910;8.878;2023-04-25T09:46:10;8.48;;;2.80;;
26822;SDS011;14852;51.910;8.878;2023-04-25T09:48:40;7.82;;;2.40;;
26822;SDS011;14852;51.910;8.878;2023-04-25T09:51:13;3.95;;;1.85;;
26822;SDS011;14852;51.910;8.878;2023-04-25T09:53:42;4.70;;;2.33;;
26822;SDS011;14852;51.910;8.878;2023-04-25T09:56:30;4.18;;;2.05;;
26822;SDS011;14852;51.910;8.878;2023-04-25T10:01:32;6.18;;;2.40;;
26822;SDS011;14852;51.910;8.878;2023-04-25T10:04:10;5.80;;;2.05;;
26822;SDS011;14852;51.910;8.878;2023-04-25T10:06:57;5.75;;;2.75;;
26822;SDS011;14852;51.910;8.878;2023-04-25T10:09:25;4.82;;;2.22;;
26822;SDS011;14852;51.910;8.878;2023-04-25T10:11:52;5.13;;;2.22;;
26822;SDS011;14852;51.910;8.878;2023-04-25T10:14:19;8.23;;;3.10;;
26822;SDS011;14852;51.910;8.878;2023-04-25T10:16:45;9.32;;;2.60;;
26822;SDS011;14852;51.910;8.878;2023-04-25T10:19:12;8.93;;;2.97;;
26822;SDS011;14852;51.910;8.878;2023-04-25T10:24:51;4.97;;;2.33;;
26822;SDS011;14852;51.910;8.878;2023-04-25T10:27:17;6.38;;;2.28;;
26822;SDS011;14852;51.910;8.878;2023-04-25T10:29:44;5.22;;;2.20;;
26822;SDS011;14852;51.910;8.878;2023-04-25T10:32:10;4.25;;;2.30;;
26822;SDS011;14852;51.910;8.878;2023-04-25T10:34:39;6.63;;;3.05;;
26822;SDS011;14852;51.910;8.878;2023-04-25T10:37:12;6.57;;;2.05;;
26822;SDS011;14852;51.910;8.878;2023-04-25T10:39:39;4.28;;;2.22;;
26822;SDS011;14852;51.910;8.878;2023-04-25T10:42:06;3.72;;;2.33;;
26822;SDS011;14852;51.910;8.878;2023-04-25T10:44:33;3.88;;;2.13;;
26822;SDS011;14852;51.910;8.878;2023-04-25T10:47:01;6.30;;;1.85;;
26822;SDS011;14852;51.910;8.878;2023-04-25T10:54:51;2.88;;;1.70;;
26822;SDS011;14852;51.910;8.878;2023-04-25T11:00:05;6.88;;;2.40;;
26822;SDS011;14852;51.910;8.878;2023-04-25T11:02:41;4.65;;;2.10;;
26822;SDS011;14852;51.910;8.878;2023-04-25T11:07:58;3.28;;;2.03;;
26822;SDS011;14852;51.910;8.878;2023-04-25T11:10:26;8.20;;;2.33;;
26822;SDS011;14852;51.910;8.878;2023-04-25T11:12:53;4.18;;;1.67;;
26822;SDS011;14852;51.910;8.878;2023-04-25T11:15:19;4.38;;;2.40;;
26822;SDS011;14852;51.910;8.878;2023-04-25T11:17:45;2.80;;;1.70;;
26822;SDS011;14852;51.910;8.878;2023-04-25T11:20:11;4.10;;;2.10;;
26822;SDS011;14852;51.910;8.878;2023-04-25T11:22:40;2.45;;;1.70;;
26822;SDS011;14852;51.910;8.878;2023-04-25T11:25:09;4.63;;;2.25;;
26822;SDS011;14852;51.910;8.878;2023-04-25T11:27:38;4.55;;;2.05;;
26822;SDS011;14852;51.910;8.878;2023-04-25T11:30:26;2.67;;;1.85;;
26822;SDS011;14852;51.910;8.878;2023-04-25T11:32:52;7.90;;;2.33;;
26822;SDS011;14852;51.910;8.878;2023-04-25T11:35:21;5.63;;;1.90;;
26822;SDS011;14852;51.910;8.878;2023-04-25T11:37:48;6.50;;;2.08;;
26822;SDS011;14852;51.910;8.878;2023-04-25T11:40:14;7.57;;;2.03;;
26822;SDS011;14852;51.910;8.878;2023-04-25T11:42:44;3.42;;;1.58;;
26822;SDS011;14852;51.910;8.878;2023-04-25T11:45:12;6.00;;;2.60;;
26822;SDS011;14852;51.910;8.878;2023-04-25T11:47:38;4.40;;;1.48;;
26822;SDS011;14852;51.910;8.878;2023-04-25T11:50:05;5.38;;;2.00;;
26822;SDS011;14852;51.910;8.878;2023-04-25T11:52:39;4.25;;;2.35;;
26822;SDS011;14852;51.910;8.878;2023-04-25T11:55:13;4.75;;;1.77;;
26822;SDS011;14852;51.910;8.878;2023-04-25T11:57:45;5.85;;;2.05;;
26822;SDS011;14852;51.910;8.878;2023-04-25T12:00:15;4.05;;;2.17;;
26822;SDS011;14852;51.910;8.878;2023-04-25T12:02:43;2.35;;;1.63;;
26822;SDS011;14852;51.910;8.878;2023-04-25T12:05:12;4.38;;;1.80;;
26822;SDS011;14852;51.910;8.878;2023-04-25T12:07:40;3.85;;;2.22;;
26822;SDS011;14852;51.910;8.878;2023-04-25T12:10:10;7.03;;;2.22;;
26822;SDS011;14852;51.910;8.878;2023-04-25T12:12:38;5.57;;;2.10;;
26822;SDS011;14852;51.910;8.878;2023-04-25T12:15:25;4.05;;;1.95;;
26822;SDS011;14852;51.910;8.878;2023-04-25T12:17:52;10.55;;;2.13;;
26822;SDS011;14852;51.910;8.878;2023-04-25T12:20:20;2.30;;;1.65;;
26822;SDS011;14852;51.910;8.878;2023-04-25T12:22:50;3.08;;;2.00;;
26822;SDS011;14852;51.910;8.878;2023-04-25T12:28:23;3.03;;;1.88;;
26822;SDS011;14852;51.910;8.878;2023-04-25T12:31:01;5.22;;;2.17;;
26822;SDS011;14852;51.910;8.878;2023-04-25T12:33:36;5.53;;;2.17;;
26822;SDS011;14852;51.910;8.878;2023-04-25T12:38:35;4.95;;;2.40;;
26822;SDS011;14852;51.910;8.878;2023-04-25T12:41:03;5.85;;;2.97;;
26822;SDS011;14852;51.910;8.878;2023-04-25T12:43:29;3.88;;;2.40;;
26822;SDS011;14852;51.910;8.878;2023-04-25T12:45:55;10.52;;;2.33;;
26822;SDS011;14852;51.910;8.878;2023-04-25T12:48:22;3.17;;;2.25;;
26822;SDS011;14852;51.910;8.878;2023-04-25T12:50:48;5.93;;;2.13;;
26822;SDS011;14852;51.910;8.878;2023-04-25T12:53:17;7.45;;;2.72;;
26822;SDS011;14852;51.910;8.878;2023-04-25T12:55:47;4.03;;;2.00;;
26822;SDS011;14852;51.910;8.878;2023-04-25T12:58:14;3.65;;;2.22;;
26822;SDS011;14852;51.910;8.878;2023-04-25T13:00:41;6.13;;;2.97;;
26822;SDS011;14852;51.910;8.878;2023-04-25T13:03:08;3.20;;;1.90;;
26822;SDS011;14852;51.910;8.878;2023-04-25T13:05:35;6.07;;;2.35;;
26822;SDS011;14852;51.910;8.878;2023-04-25T13:08:02;4.10;;;1.67;;
26822;SDS011;14852;51.910;8.878;2023-04-25T13:10:29;4.20;;;1.70;;
26822;SDS011;14852;51.910;8.878;2023-04-25T13:12:55;5.10;;;1.70;;
26822;SDS011;14852;51.910;8.878;2023-04-25T13:15:20;3.33;;;1.73;;
26822;SDS011;14852;51.910;8.878;2023-04-25T13:17:46;5.30;;;2.17;;
26822;SDS011;14852;51.910;8.878;2023-04-25T13:20:12;2.25;;;1.40;;
26822;SDS011;14852;51.910;8.878;2023-04-25T13:22:39;3.17;;;1.52;;
26822;SDS011;14852;51.910;8.878;2023-04-25T13:25:06;3.00;;;1.98;;
26822;SDS011;14852;51.910;8.878;2023-04-25T13:27:33;3.55;;;1.85;;
26822;SDS011;14852;51.910;8.878;2023-04-25T13:30:01;3.75;;;1.75;;
26822;SDS011;14852;51.910;8.878;2023-04-25T13:32:33;5.55;;;1.95;;
26822;SDS011;14852;51.910;8.878;2023-04-25T13:35:01;3.20;;;1.75;;
26822;SDS011;14852;51.910;8.878;2023-04-25T13:37:29;3.25;;;1.80;;
26822;SDS011;14852;51.910;8.878;2023-04-25T13:39:58;2.95;;;1.67;;
26822;SDS011;14852;51.910;8.878;2023-04-25T13:42:25;3.40;;;1.70;;
26822;SDS011;14852;51.910;8.878;2023-04-25T13:44:51;3.25;;;1.92;;
26822;SDS011;14852;51.910;8.878;2023-04-25T13:47:17;5.20;;;1.63;;
26822;SDS011;14852;51.910;8.878;2023-04-25T13:49:43;2.95;;;1.70;;
26822;SDS011;14852;51.910;8.878;2023-04-25T13:52:08;7.10;;;1.80;;
26822;SDS011;14852;51.910;8.878;2023-04-25T13:54:34;4.18;;;1.50;;
26822;SDS011;14852;51.910;8.878;2023-04-25T13:57:00;4.10;;;1.90;;
26822;SDS011;14852;51.910;8.878;2023-04-25T13:59:26;4.97;;;2.15;;
26822;SDS011;14852;51.910;8.878;2023-04-25T14:01:52;3.35;;;1.73;;
26822;SDS011;14852;51.910;8.878;2023-04-25T14:04:18;3.72;;;1.90;;
26822;SDS011;14852;51.910;8.878;2023-04-25T14:06:44;3.28;;;1.38;;
26822;SDS011;14852;51.910;8.878;2023-04-25T14:09:10;2.33;;;1.52;;
26822;SDS011;14852;51.910;8.878;2023-04-25T14:11:38;2.45;;;1.63;;
26822;SDS011;14852;51.910;8.878;2023-04-25T14:14:04;2.75;;;1.50;;
26822;SDS011;14852;51.910;8.878;2023-04-25T14:16:30;2.92;;;1.30;;
26822;SDS011;14852;51.910;8.878;2023-04-25T14:18:59;2.40;;;1.20;;
26822;SDS011;14852;51.910;8.878;2023-04-25T14:21:25;2.30;;;1.30;;
26822;SDS011;14852;51.910;8.878;2023-04-25T14:23:51;2.22;;;1.08;;
26822;SDS011;14852;51.910;8.878;2023-04-25T14:26:17;3.30;;;1.40;;
26822;SDS011;14852;51.910;8.878;2023-04-25T14:28:43;1.83;;;1.10;;
26822;SDS011;14852;51.910;8.878;2023-04-25T14:31:09;2.13;;;1.02;;
26822;SDS011;14852;51.910;8.878;2023-04-25T14:33:35;1.15;;;0.90;;
26822;SDS011;14852;51.910;8.878;2023-04-25T14:36:03;3.00;;;1.23;;
26822;SDS011;14852;51.910;8.878;2023-04-25T14:38:28;2.50;;;1.60;;
26822;SDS011;14852;51.910;8.878;2023-04-25T14:40:54;2.63;;;1.13;;
26822;SDS011;14852;51.910;8.878;2023-04-25T14:43:20;3.75;;;1.20;;
26822;SDS011;14852;51.910;8.878;2023-04-25T14:45:46;2.75;;;1.40;;
26822;SDS011;14852;51.910;8.878;2023-04-25T14:48:11;2.95;;;1.27;;
26822;SDS011;14852;51.910;8.878;2023-04-25T14:50:37;6.82;;;1.52;;
26822;SDS011;14852;51.910;8.878;2023-04-25T14:53:03;2.33;;;1.35;;
26822;SDS011;14852;51.910;8.878;2023-04-25T14:55:29;2.38;;;1.33;;
26822;SDS011;14852;51.910;8.878;2023-04-25T14:57:55;3.53;;;1.45;;
26822;SDS011;14852;51.910;8.878;2023-04-25T15:00:21;2.45;;;1.50;;
26822;SDS011;14852;51.910;8.878;2023-04-25T15:02:48;2.75;;;1.35;;
26822;SDS011;14852;51.910;8.878;2023-04-25T15:05:14;3.30;;;1.55;;
26822;SDS011;14852;51.910;8.878;2023-04-25T15:07:40;3.95;;;1.23;;
26822;SDS011;14852;51.910;8.878;2023-04-25T15:10:09;5.00;;;1.55;;
26822;SDS011;14852;51.910;8.878;2023-04-25T15:12:40;3.10;;;1.92;;
26822;SDS011;14852;51.910;8.878;2023-04-25T15:15:09;2.28;;;1.20;;
26822;SDS011;14852;51.910;8.878;2023-04-25T15:17:37;2.85;;;1.55;;
26822;SDS011;14852;51.910;8.878;2023-04-25T15:20:05;4.10;;;1.52;;